Fonda, Vermont
Current Conditions -  °F | °C
As of 10:55 PM on Sunday 23 Nov 2014 (Local Time) from KFSO Reporting Station
Overcast Overcast  
Wind Chill: 43°   Ceiling: 5500
Heat Index: 46°   Visibility: 10mi
Dew Point: 40°   Wind: 5mph
Humidity: 80%   Direction: 120°ESE
Pressure: 29.95"   Gusts: NA
Location:  44.9002°N, 73.1493°W
Report Text: KFSO 240355Z AUTO 12004KT 10SM BKN055 BKN070 OVC090 08/04 A2995 RMK AO2 T00750043
Loading
Personal Weather Stations






























Interactive Weather Map New forecast layout! Learn more

10-Day Weather Forecast

Advertisements
Track Severe Weather on mobile